createdAt,value
2022-10-15T00:02:10.767Z,101116.63
2022-10-15T00:04:41.014Z,101107.97
2022-10-15T00:07:11.147Z,101112.31
2022-10-15T00:09:41.499Z,101104.50
2022-10-15T00:12:11.859Z,101107.97
2022-10-15T00:14:41.936Z,101100.22
2022-10-15T00:17:12.092Z,101104.59
2022-10-15T00:19:42.212Z,101098.47
2022-10-15T00:22:12.310Z,101092.38
2022-10-15T00:24:44.973Z,101077.66
2022-10-15T00:27:15.106Z,101071.56
2022-10-15T00:29:45.249Z,101063.78
2022-10-15T00:32:15.401Z,101070.69
2022-10-15T00:34:46.304Z,101079.41
2022-10-15T00:37:17.429Z,101072.47
2022-10-15T00:39:47.683Z,101071.63
2022-10-15T00:42:18.392Z,101068.16
2022-10-15T00:44:57.727Z,101065.50
2022-10-15T00:47:38.762Z,101069.91
2022-10-15T00:50:23.047Z,101059.47
2022-10-15T00:53:10.019Z,101067.28
2022-10-15T00:55:43.012Z,101056.00
2022-10-15T00:58:22.601Z,101053.41
2022-10-15T01:00:52.765Z,101048.19
2022-10-15T01:03:23.563Z,101051.63
2022-10-15T01:05:54.133Z,101032.53
2022-10-15T01:08:24.344Z,101035.09
2022-10-15T01:11:12.011Z,101036.81
2022-10-15T01:13:45.014Z,101034.22
2022-10-15T01:16:39.266Z,101038.56
2022-10-15T01:19:44.354Z,101029.84
2022-10-15T01:22:35.750Z,101033.31
2022-10-15T01:25:35.618Z,101022.06
2022-10-15T01:28:19.578Z,101020.31
2022-10-15T01:31:04.932Z,101016.84
2022-10-15T01:33:59.900Z,101019.44
2022-10-15T01:36:59.340Z,101029.88
2022-10-15T01:39:41.532Z,101009.91
2022-10-15T01:42:34.592Z,101016.78
2022-10-15T01:45:10.260Z,101010.72
2022-10-15T01:47:48.826Z,100998.56
2022-10-15T01:50:22.932Z,101001.13
2022-10-15T01:52:56.038Z,101008.09
2022-10-15T01:55:27.537Z,101008.13
2022-10-15T01:58:00.458Z,100995.97
2022-10-15T02:00:30.699Z,100991.63
2022-10-15T02:03:02.487Z,100988.09
2022-10-15T02:05:39.282Z,100989.84
2022-10-15T02:08:24.721Z,100995.91
2022-10-15T02:11:16.155Z,100975.06
2022-10-15T02:14:16.235Z,100988.94
2022-10-15T02:17:02.132Z,100979.34
2022-10-15T02:20:00.553Z,100977.59
2022-10-15T02:22:55.868Z,100981.97
2022-10-15T02:25:28.269Z,100975.88
2022-10-15T02:28:00.000Z,100979.31
2022-10-15T02:30:31.725Z,100967.16
2022-10-15T02:33:01.843Z,100972.31
2022-10-15T02:35:33.316Z,100970.63
2022-10-15T02:38:08.107Z,100976.69
2022-10-15T02:40:41.511Z,100970.59
2022-10-15T02:43:14.816Z,100975.78
2022-10-15T02:45:44.985Z,100974.94
2022-10-15T02:48:15.476Z,100969.72
2022-10-15T02:50:45.550Z,100967.09
2022-10-15T02:53:15.687Z,100960.13
2022-10-15T02:55:47.160Z,100967.97
2022-10-15T02:58:17.310Z,100959.28
2022-10-15T03:00:47.513Z,100959.28
2022-10-15T03:03:17.813Z,100957.56
2022-10-15T03:05:48.188Z,100959.28
2022-10-15T03:08:18.368Z,100951.44
2022-10-15T03:10:48.708Z,100954.91
2022-10-15T03:13:18.871Z,100956.59
2022-10-15T03:15:49.010Z,100952.25
2022-10-15T03:18:19.408Z,100939.28
2022-10-15T03:20:56.880Z,100956.59
2022-10-15T03:23:28.965Z,100951.38
2022-10-15T03:25:59.209Z,100947.06
2022-10-15T03:28:29.500Z,100944.47
2022-10-15T03:31:00.188Z,100949.63
2022-10-15T03:33:30.700Z,100947.03
2022-10-15T03:36:00.846Z,100937.53
2022-10-15T03:38:30.949Z,100969.66
2022-10-15T03:41:01.230Z,100968.81
2022-10-15T03:43:31.443Z,100967.09
2022-10-15T03:46:03.820Z,100963.59
2022-10-15T03:48:33.996Z,100968.81
2022-10-15T03:51:04.275Z,100960.06
2022-10-15T03:53:34.461Z,100950.53
2022-10-15T03:56:06.134Z,100948.81
2022-10-15T03:58:36.350Z,100921.97
2022-10-15T04:01:11.071Z,100951.44
2022-10-15T04:03:41.834Z,100945.31
2022-10-15T04:06:12.042Z,100944.44
2022-10-15T04:08:42.229Z,100937.47
2022-10-15T04:11:12.577Z,100929.75
2022-10-15T04:13:42.817Z,100922.84
2022-10-15T04:16:13.065Z,100915.88
2022-10-15T04:18:43.307Z,100928.84
2022-10-15T04:21:13.437Z,100934.91
2022-10-15T04:23:43.540Z,100932.25
2022-10-15T04:26:13.668Z,100928.78
2022-10-15T04:28:43.910Z,100929.69
2022-10-15T04:31:14.208Z,100914.94
2022-10-15T04:33:44.241Z,100917.53
2022-10-15T04:36:14.445Z,100920.16
2022-10-15T04:38:44.667Z,100915.78
2022-10-15T04:41:15.329Z,100918.41
2022-10-15T04:43:45.599Z,100909.78
2022-10-15T04:46:15.826Z,100915.88
2022-10-15T04:48:45.923Z,100915.94
2022-10-15T04:51:19.218Z,100920.25
2022-10-15T04:53:49.435Z,100923.75
2022-10-15T04:56:21.324Z,100918.56
2022-10-15T04:58:51.567Z,100922.06
2022-10-15T05:01:22.208Z,100898.72
2022-10-15T05:03:52.313Z,100919.50
2022-10-15T05:06:22.845Z,100929.06
2022-10-15T05:08:53.253Z,100913.44
2022-10-15T05:11:26.647Z,100916.06
2022-10-15T05:13:58.221Z,100907.41
2022-10-15T05:16:29.936Z,100917.84
2022-10-15T05:19:05.649Z,100910.00
2022-10-15T05:21:36.155Z,100915.28
2022-10-15T05:24:06.688Z,100919.63
2022-10-15T05:26:37.174Z,100913.50
2022-10-15T05:29:07.339Z,100903.13
2022-10-15T05:31:37.522Z,100897.88
2022-10-15T05:34:09.897Z,100894.38
2022-10-15T05:36:40.230Z,100890.03
2022-10-15T05:39:12.392Z,100885.72
2022-10-15T05:41:42.590Z,100890.03
2022-10-15T05:44:12.847Z,100890.94
2022-10-15T05:46:42.963Z,100883.19
2022-10-15T05:49:13.137Z,100876.19
2022-10-15T05:51:43.390Z,100866.59
2022-10-15T05:54:13.790Z,100877.03
2022-10-15T05:56:43.851Z,100881.41
2022-10-15T05:59:14.032Z,100885.78
2022-10-15T06:01:44.123Z,100884.00
2022-10-15T06:04:14.343Z,100883.16
2022-10-15T06:06:44.878Z,100877.91
2022-10-15T06:09:15.389Z,100881.38
2022-10-15T06:11:46.512Z,100885.69
2022-10-15T06:14:16.848Z,100867.50
2022-10-15T06:16:50.779Z,100879.59
2022-10-15T06:19:22.041Z,100877.88
2022-10-15T06:21:52.169Z,100870.97
2022-10-15T06:24:22.359Z,100874.44
2022-10-15T06:26:52.530Z,100878.78
2022-10-15T06:29:22.717Z,100889.16
2022-10-15T06:31:52.874Z,100888.28
2022-10-15T06:34:23.031Z,100893.50
2022-10-15T06:36:53.351Z,100882.19
2022-10-15T06:39:23.606Z,100879.53
2022-10-15T06:41:53.740Z,100864.84
2022-10-15T06:44:23.844Z,100887.28
2022-10-15T06:46:53.996Z,100899.47
2022-10-15T06:49:24.507Z,100896.84
2022-10-15T06:51:55.465Z,100881.28
2022-10-15T06:54:27.638Z,100895.97
2022-10-15T06:56:57.818Z,100895.97
2022-10-15T06:59:27.984Z,100904.59
2022-10-15T07:01:58.483Z,100903.69
2022-10-15T07:04:28.775Z,100907.16
2022-10-15T07:06:59.183Z,100913.22
2022-10-15T07:09:29.756Z,100901.88
2022-10-15T07:11:59.815Z,100908.00
2022-10-15T07:14:30.014Z,100897.66
2022-10-15T07:17:00.201Z,100897.56
2022-10-15T07:19:30.351Z,100898.38
2022-10-15T07:22:00.669Z,100906.16
2022-10-15T07:24:30.724Z,100903.47
2022-10-15T07:27:05.135Z,100901.72
2022-10-15T07:29:38.592Z,100896.38
2022-10-15T07:32:08.803Z,100901.59
2022-10-15T07:34:38.939Z,100905.03
2022-10-15T07:37:09.048Z,100905.88
2022-10-15T07:39:40.931Z,100905.81
2022-10-15T07:44:43.118Z,100902.25
2022-10-15T07:47:13.230Z,100884.94
2022-10-15T07:49:43.490Z,100903.03
2022-10-15T07:52:13.770Z,100904.69
2022-10-15T07:54:43.912Z,100913.31
2022-10-15T07:57:14.150Z,100888.22
2022-10-15T07:59:44.371Z,100900.31
2022-10-15T08:02:18.918Z,100902.00
2022-10-15T08:04:49.142Z,100901.09
2022-10-15T08:07:19.195Z,100904.53
2022-10-15T08:09:49.595Z,100896.69
2022-10-15T08:12:20.343Z,100901.81
2022-10-15T08:14:50.439Z,100901.75
2022-10-15T08:17:20.921Z,100897.34
2022-10-15T08:19:51.090Z,100896.31
2022-10-15T08:22:21.611Z,100892.00
2022-10-15T08:24:52.673Z,100898.91
2022-10-15T08:27:23.131Z,100898.91
2022-10-15T08:29:53.240Z,100898.00
2022-10-15T08:32:23.766Z,100892.69
2022-10-15T08:34:54.113Z,100890.94
2022-10-15T08:37:24.245Z,100896.00
2022-10-15T08:39:54.629Z,100878.53
2022-10-15T08:42:34.175Z,100884.38
2022-10-15T08:45:11.763Z,100881.59
2022-10-15T08:48:12.809Z,100885.00
2022-10-15T08:51:02.838Z,100881.56
2022-10-15T08:53:45.558Z,100889.38
2022-10-15T08:56:21.249Z,100881.59
2022-10-15T08:59:03.677Z,100878.03
2022-10-15T09:02:04.339Z,100885.78
2022-10-15T09:04:49.282Z,100882.19
2022-10-15T09:07:35.090Z,100887.41
2022-10-15T09:10:43.628Z,100889.09
2022-10-15T09:13:32.874Z,100874.22
2022-10-15T09:16:11.184Z,100882.00
2022-10-15T09:18:48.830Z,100869.91
2022-10-15T09:21:22.304Z,100887.06
2022-10-15T09:24:01.842Z,100891.34
2022-10-15T09:26:44.793Z,100869.84
2022-10-15T09:29:19.127Z,100887.88
2022-10-15T09:32:07.710Z,100908.59
2022-10-15T09:34:51.777Z,100886.69
2022-10-15T09:37:30.358Z,100909.97
2022-10-15T09:40:29.927Z,100890.63
2022-10-15T09:43:02.000Z,100886.97
2022-10-15T09:45:32.699Z,100885.03
2022-10-15T09:48:15.884Z,100881.44
2022-10-15T09:51:12.850Z,100892.53
2022-10-15T09:54:00.774Z,100883.63
2022-10-15T09:56:46.336Z,100892.22
2022-10-15T09:59:21.616Z,100894.81
2022-10-15T10:02:06.145Z,100893.00
2022-10-15T10:04:38.658Z,100885.03
2022-10-15T10:07:08.956Z,100883.28
2022-10-15T10:09:56.908Z,100880.59
2022-10-15T10:12:34.081Z,100884.69
2022-10-15T10:15:34.938Z,100887.19
2022-10-15T10:18:08.170Z,100892.38
2022-10-15T10:20:53.881Z,100887.19
2022-10-15T10:23:28.910Z,100890.53
2022-10-15T10:26:00.044Z,100893.91
2022-10-15T10:28:40.573Z,100887.69
2022-10-15T10:31:13.648Z,100886.66
2022-10-15T10:33:50.564Z,100862.41
2022-10-15T10:36:24.527Z,100889.97
2022-10-15T10:39:32.676Z,100886.97
2022-10-15T10:42:06.966Z,100881.66
2022-10-15T10:44:40.548Z,100858.09
2022-10-15T10:47:24.613Z,100875.91
2022-10-15T10:49:57.571Z,100865.41
2022-10-15T10:52:27.676Z,100866.06
2022-10-15T10:55:06.402Z,100867.78
2022-10-15T10:57:52.018Z,100865.16
2022-10-15T11:00:28.017Z,100861.56
2022-10-15T11:02:58.443Z,100845.00
2022-10-15T11:05:34.829Z,100837.94
2022-10-15T11:08:19.777Z,100854.16
2022-10-15T11:11:02.528Z,100856.09
2022-10-15T11:14:17.552Z,100859.53
2022-10-15T11:17:11.715Z,100858.69
2022-10-15T11:20:13.130Z,100854.53
2022-10-15T11:22:51.474Z,100858.56
2022-10-15T11:25:35.284Z,100860.41
2022-10-15T11:28:45.002Z,100856.94
2022-10-15T11:31:37.100Z,100837.78
2022-10-15T11:34:22.876Z,100857.13
2022-10-15T11:36:58.579Z,100851.88
2022-10-15T11:39:39.923Z,100844.09
2022-10-15T11:42:21.730Z,100851.03
2022-10-15T11:45:33.588Z,100853.69
2022-10-15T11:48:17.009Z,100850.38
2022-10-15T11:50:51.761Z,100861.69
2022-10-15T11:53:38.371Z,100835.06
2022-10-15T11:56:17.108Z,100848.81
2022-10-15T11:58:52.711Z,100862.72
2022-10-15T12:01:48.738Z,100843.69
2022-10-15T12:04:26.689Z,100861.66
2022-10-15T12:07:02.443Z,100855.75
2022-10-15T12:09:38.510Z,100855.13
2022-10-15T12:12:42.393Z,100870.81
2022-10-15T12:15:27.872Z,100872.59
2022-10-15T12:18:31.812Z,100865.66
2022-10-15T12:21:01.980Z,100864.06
2022-10-15T12:23:35.032Z,100866.75
2022-10-15T12:26:26.687Z,100858.72
2022-10-15T12:29:00.824Z,100855.19
2022-10-15T12:31:50.430Z,100854.13
2022-10-15T12:34:43.323Z,100849.66
2022-10-15T12:37:19.428Z,100841.91
2022-10-15T12:39:56.701Z,100837.59
2022-10-15T12:42:39.906Z,100856.66
2022-10-15T12:45:22.958Z,100851.50
2022-10-15T12:48:06.642Z,100853.22
2022-10-15T12:50:39.676Z,100855.03
2022-10-15T12:53:34.608Z,100856.94
2022-10-15T12:56:16.592Z,100852.03
2022-10-15T12:58:54.814Z,100850.28
2022-10-15T13:01:43.889Z,100844.97
2022-10-15T13:04:14.175Z,100842.38
2022-10-15T13:06:45.343Z,100842.38
2022-10-15T13:09:16.962Z,100842.41
2022-10-15T13:11:47.225Z,100850.28
2022-10-15T13:14:31.683Z,100855.63
2022-10-15T13:17:05.672Z,100858.38
2022-10-15T13:19:40.219Z,100856.72
2022-10-15T13:22:28.472Z,100853.13
2022-10-15T13:24:59.573Z,100861.03
2022-10-15T13:27:37.883Z,100840.38
2022-10-15T13:30:14.557Z,100852.31
2022-10-15T13:32:51.903Z,100845.47
2022-10-15T13:35:30.088Z,100842.78
2022-10-15T13:38:00.720Z,100839.28
2022-10-15T13:40:32.623Z,100838.28
2022-10-15T13:43:16.280Z,100825.19
2022-10-15T13:45:53.710Z,100794.84
2022-10-15T13:48:30.075Z,100831.84
2022-10-15T13:51:03.104Z,100823.91
2022-10-15T13:53:46.321Z,100832.59
2022-10-15T13:56:33.086Z,100822.06
2022-10-15T13:59:04.263Z,100825.50
2022-10-15T14:01:45.843Z,100822.06
2022-10-15T14:04:18.395Z,100792.84
2022-10-15T14:06:57.111Z,100827.19
2022-10-15T14:09:33.407Z,100825.50
2022-10-15T14:12:06.854Z,100828.13
2022-10-15T14:14:41.776Z,100822.78
2022-10-15T14:17:21.613Z,100827.22
2022-10-15T14:22:54.935Z,100825.56
2022-10-15T14:25:26.348Z,100833.38
2022-10-15T14:27:56.673Z,100820.47
2022-10-15T14:30:36.811Z,100829.88
2022-10-15T14:33:31.323Z,100830.81
2022-10-15T14:36:13.576Z,100817.09
2022-10-15T14:38:43.707Z,100835.34
2022-10-15T14:41:32.766Z,100829.16
2022-10-15T14:44:06.212Z,100829.16
2022-10-15T14:46:42.925Z,100815.34
2022-10-15T14:49:19.014Z,100812.72
2022-10-15T14:52:22.900Z,100832.50
2022-10-15T14:55:01.738Z,100838.69
2022-10-15T14:57:38.629Z,100811.03
2022-10-15T15:00:28.099Z,100838.78
2022-10-15T15:03:01.486Z,100834.50
2022-10-15T15:05:54.728Z,100851.94
2022-10-15T15:08:26.305Z,100844.16
2022-10-15T15:10:58.290Z,100843.47
2022-10-15T15:13:31.585Z,100847.84
2022-10-15T15:16:03.299Z,100860.84
2022-10-15T15:18:33.925Z,100853.16
2022-10-15T15:21:07.544Z,100848.78
2022-10-15T15:23:37.690Z,100867.94
2022-10-15T15:26:07.973Z,100859.28
2022-10-15T15:28:38.246Z,100867.09
2022-10-15T15:31:16.399Z,100865.34
2022-10-15T15:33:46.677Z,100866.22
2022-10-15T15:36:20.918Z,100864.56
2022-10-15T15:38:58.815Z,100869.84
2022-10-15T15:41:29.124Z,100880.22
2022-10-15T15:43:59.358Z,100882.94
2022-10-15T15:46:30.896Z,100875.94
2022-10-15T15:49:01.511Z,100869.03
2022-10-15T15:51:32.706Z,100875.09
2022-10-15T15:54:07.011Z,100869.94
2022-10-15T15:56:37.825Z,100872.56
2022-10-15T15:59:08.041Z,100854.47
2022-10-15T16:01:38.235Z,100880.44
2022-10-15T16:04:09.000Z,100859.81
2022-10-15T16:06:40.095Z,100865.84
2022-10-15T16:09:10.768Z,100882.34
2022-10-15T16:11:41.154Z,100875.53
2022-10-15T16:14:11.637Z,100894.63
2022-10-15T16:16:42.009Z,100885.00
2022-10-15T16:19:12.115Z,100889.38
2022-10-15T16:21:42.470Z,100889.53
2022-10-15T16:24:12.583Z,100892.94
2022-10-15T16:26:42.861Z,100896.47
2022-10-15T16:29:19.118Z,100893.84
2022-10-15T16:31:57.799Z,100877.47
2022-10-15T16:34:27.937Z,100891.31
2022-10-15T16:36:58.145Z,100902.59
2022-10-15T16:39:28.715Z,100894.75
2022-10-15T16:41:59.076Z,100887.09
2022-10-15T16:44:29.506Z,100907.88
2022-10-15T16:46:59.647Z,100901.78
2022-10-15T16:49:29.907Z,100894.78
2022-10-15T16:52:00.102Z,100897.47
2022-10-15T16:54:30.327Z,100903.59
2022-10-15T16:57:00.578Z,100899.31
2022-10-15T16:59:30.962Z,100917.53
2022-10-15T17:02:01.566Z,100906.22
2022-10-15T17:04:32.237Z,100908.09
2022-10-15T17:07:02.956Z,100919.38
2022-10-15T17:09:33.182Z,100917.66
2022-10-15T17:12:03.715Z,100923.72
2022-10-15T17:14:33.834Z,100915.13
2022-10-15T17:17:04.028Z,100930.72
2022-10-15T17:19:35.261Z,100914.38
2022-10-15T17:22:05.327Z,100925.53
2022-10-15T17:24:36.028Z,100935.91
2022-10-15T17:27:06.178Z,100938.63
2022-10-15T17:29:36.401Z,100936.91
2022-10-15T17:32:06.687Z,100913.63
2022-10-15T17:34:37.125Z,100930.00
2022-10-15T17:37:07.905Z,100932.66
2022-10-15T17:39:38.081Z,100933.56
2022-10-15T17:42:08.253Z,100938.66
2022-10-15T17:44:38.873Z,100941.34
2022-10-15T17:47:09.047Z,100937.88
2022-10-15T17:49:39.336Z,100942.22
2022-10-15T17:52:10.310Z,100930.13
2022-10-15T17:54:54.130Z,100934.44
2022-10-15T17:57:25.053Z,100948.41
2022-10-15T17:59:55.435Z,100943.25
2022-10-15T18:02:25.647Z,100940.72
2022-10-15T18:04:55.691Z,100956.34
2022-10-15T18:07:26.263Z,100958.13
2022-10-15T18:09:56.717Z,100957.31
2022-10-15T18:12:26.926Z,100939.16
2022-10-15T18:14:57.126Z,100959.03
2022-10-15T18:17:27.762Z,100958.16
2022-10-15T18:19:58.083Z,100954.88
2022-10-15T18:22:28.429Z,100968.66
2022-10-15T18:24:58.559Z,100973.03
2022-10-15T18:27:28.851Z,100963.66
2022-10-15T18:29:59.138Z,100967.03
2022-10-15T18:32:29.312Z,100985.31
2022-10-15T18:34:59.430Z,100984.38
2022-10-15T18:37:29.537Z,100988.81
2022-10-15T18:39:59.703Z,100990.50
2022-10-15T18:42:29.866Z,100991.41
2022-10-15T18:45:00.024Z,100988.91
2022-10-15T18:47:30.157Z,100992.34
2022-10-15T18:50:00.357Z,100969.88
2022-10-15T18:52:40.303Z,100987.19
2022-10-15T18:55:10.926Z,100990.59
2022-10-15T18:57:41.128Z,100988.97
2022-10-15T19:00:12.846Z,100997.78
2022-10-15T19:02:43.050Z,100996.88
2022-10-15T19:05:13.311Z,101007.31
2022-10-15T19:07:43.800Z,101002.13
2022-10-15T19:10:15.354Z,101006.59
2022-10-15T19:12:48.800Z,100996.94
2022-10-15T19:15:19.067Z,101001.25
2022-10-15T19:17:56.847Z,100999.66
2022-10-15T19:20:26.961Z,100997.06
2022-10-15T19:22:57.114Z,100993.56
2022-10-15T19:25:27.180Z,101004.84
2022-10-15T19:27:57.560Z,101007.56
2022-10-15T19:30:28.603Z,100985.91
2022-10-15T19:32:58.792Z,100998.91
2022-10-15T19:35:29.184Z,101005.84
2022-10-15T19:37:59.436Z,101002.44
2022-10-15T19:40:30.720Z,100999.81
2022-10-15T19:43:01.023Z,101008.47
2022-10-15T19:45:31.265Z,100992.84
2022-10-15T19:48:02.499Z,101004.13
2022-10-15T19:50:38.339Z,101002.44
2022-10-15T19:53:11.823Z,101005.84
2022-10-15T19:55:43.340Z,101012.88
2022-10-15T19:58:13.611Z,101010.31
2022-10-15T20:00:51.498Z,101016.38
2022-10-15T20:03:23.437Z,101015.53
2022-10-15T20:05:53.974Z,100992.16
2022-10-15T20:08:24.840Z,101013.78
2022-10-15T20:10:55.254Z,101014.66
2022-10-15T20:13:25.782Z,101024.28
2022-10-15T20:15:56.526Z,101026.91
2022-10-15T20:18:26.607Z,101021.69
2022-10-15T20:20:56.816Z,101019.22
2022-10-15T20:23:27.177Z,101033.16
2022-10-15T20:25:57.455Z,101020.25
2022-10-15T20:28:27.616Z,101025.38
2022-10-15T20:30:57.950Z,101035.78
2022-10-15T20:33:28.190Z,101028.00
2022-10-15T20:36:07.276Z,101041.03
2022-10-15T20:38:38.054Z,101032.41
2022-10-15T20:41:16.178Z,101044.56
2022-10-15T20:43:47.409Z,101036.81
2022-10-15T20:46:25.772Z,101025.56
2022-10-15T20:49:00.033Z,101042.88
2022-10-15T20:51:32.201Z,101039.41
2022-10-15T20:54:02.659Z,101025.56
2022-10-15T20:56:32.830Z,101031.66
2022-10-15T20:59:05.255Z,101039.44
2022-10-15T21:01:36.229Z,101033.41
2022-10-15T21:04:06.741Z,101036.84
2022-10-15T21:06:37.031Z,101043.00
2022-10-15T21:09:07.222Z,101027.34
2022-10-15T21:11:44.243Z,101035.13
2022-10-15T21:14:14.883Z,101041.31
2022-10-15T21:16:45.130Z,101042.16
2022-10-15T21:19:15.434Z,101042.13
2022-10-15T21:21:45.549Z,101035.22
2022-10-15T21:24:15.695Z,101035.28
2022-10-15T21:26:45.923Z,101035.97
2022-10-15T21:29:17.758Z,101046.53
2022-10-15T21:31:48.826Z,101029.06
2022-10-15T21:34:20.518Z,101032.50
2022-10-15T21:36:50.654Z,101040.34
2022-10-15T21:39:21.082Z,101044.78
2022-10-15T21:41:51.202Z,101049.09
2022-10-15T21:44:21.494Z,101056.06
2022-10-15T21:46:51.680Z,101058.69
2022-10-15T21:49:21.975Z,101059.56
2022-10-15T21:51:52.122Z,101051.69
2022-10-15T21:54:22.317Z,101053.47
2022-10-15T21:56:52.426Z,101053.47
2022-10-15T21:59:22.713Z,101050.00
2022-10-15T22:01:53.283Z,101029.25
2022-10-15T22:04:23.664Z,101045.59
2022-10-15T22:06:53.829Z,101038.75
2022-10-15T22:09:23.969Z,101043.91
2022-10-15T22:11:54.198Z,101039.63
2022-10-15T22:14:24.294Z,101038.84
2022-10-15T22:16:54.457Z,101040.56
2022-10-15T22:19:24.606Z,101032.84
2022-10-15T22:21:54.797Z,101042.41
2022-10-15T22:24:24.869Z,101055.50
2022-10-15T22:26:55.155Z,101040.88
2022-10-15T22:29:31.658Z,101034.81
2022-10-15T22:32:05.490Z,101061.69
2022-10-15T22:34:35.767Z,101063.53
2022-10-15T22:37:05.884Z,101056.53
2022-10-15T22:39:36.107Z,101070.38
2022-10-15T22:42:06.591Z,101073.88
2022-10-15T22:44:36.678Z,101071.25
2022-10-15T22:47:06.870Z,101067.81
2022-10-15T22:49:37.018Z,101076.47
2022-10-15T22:52:07.856Z,101079.09
2022-10-15T22:54:38.049Z,101094.75
2022-10-15T22:57:08.186Z,101096.53
2022-10-15T22:59:38.319Z,101088.72
2022-10-15T23:02:08.460Z,101099.19
2022-10-15T23:04:38.642Z,101096.53
2022-10-15T23:07:08.736Z,101093.13
2022-10-15T23:09:38.893Z,101108.75
2022-10-15T23:12:09.094Z,101097.44
2022-10-15T23:14:39.308Z,101100.91
2022-10-15T23:17:09.668Z,101113.16
2022-10-15T23:19:39.783Z,101116.63
2022-10-15T23:22:09.903Z,101118.38
2022-10-15T23:24:40.028Z,101118.38
2022-10-15T23:27:10.416Z,101111.47
2022-10-15T23:29:40.677Z,101121.88
2022-10-15T23:32:10.896Z,101115.78
2022-10-15T23:34:41.155Z,101114.09
2022-10-15T23:37:11.244Z,101130.59
2022-10-15T23:39:41.380Z,101122.72
2022-10-15T23:42:11.573Z,101121.78
2022-10-15T23:44:41.823Z,101101.91
2022-10-15T23:47:11.910Z,101116.56
2022-10-15T23:49:42.011Z,101122.66
2022-10-15T23:52:12.138Z,101124.31
2022-10-15T23:54:42.284Z,101117.38
2022-10-15T23:57:12.390Z,101120.84
2022-10-15T23:59:42.585Z,101124.31
